sensor_id;sensor_type;location;lat;lon;timestamp;pressure;altitude;pressure_sealevel;temperature;humidity
19210;BME280;9738;51.654;14.238;2023-03-20T00:01:18;100530.34;;;10.72;100.00
19210;BME280;9738;51.654;14.238;2023-03-20T00:03:46;100533.34;;;10.69;100.00
19210;BME280;9738;51.654;14.238;2023-03-20T00:06:17;100528.59;;;10.63;100.00
19210;BME280;9738;51.654;14.238;2023-03-20T00:08:44;100531.41;;;10.61;100.00
19210;BME280;9738;51.654;14.238;2023-03-20T00:14:03;100533.38;;;10.59;100.00
19210;BME280;9738;51.654;14.238;2023-03-20T00:16:35;100536.75;;;10.61;100.00
19210;BME280;9738;51.654;14.238;2023-03-20T00:19:02;100530.13;;;10.65;100.00
19210;BME280;9738;51.654;14.238;2023-03-20T00:21:29;100530.28;;;10.64;100.00
19210;BME280;9738;51.654;14.238;2023-03-20T00:23:56;100533.78;;;10.64;100.00
19210;BME280;9738;51.654;14.238;2023-03-20T00:26:27;100530.28;;;10.64;100.00
19210;BME280;9738;51.654;14.238;2023-03-20T00:28:55;100522.09;;;10.65;100.00
19210;BME280;9738;51.654;14.238;2023-03-20T00:31:26;100530.13;;;10.65;100.00
19210;BME280;9738;51.654;14.238;2023-03-20T00:33:55;100528.28;;;10.66;100.00
19210;BME280;9738;51.654;14.238;2023-03-20T00:36:22;100525.94;;;10.63;100.00
19210;BME280;9738;51.654;14.238;2023-03-20T00:38:49;100529.72;;;10.60;100.00
19210;BME280;9738;51.654;14.238;2023-03-20T00:41:30;100534.22;;;10.60;100.00
19210;BME280;9738;51.654;14.238;2023-03-20T00:44:03;100526.81;;;10.53;100.00
19210;BME280;9738;51.654;14.238;2023-03-20T00:46:36;100527.81;;;10.52;100.00
19210;BME280;9738;51.654;14.238;2023-03-20T00:49:02;100527.97;;;10.51;100.00
19210;BME280;9738;51.654;14.238;2023-03-20T00:51:28;100521.53;;;10.44;100.00
19210;BME280;9738;51.654;14.238;2023-03-20T00:53:55;100519.09;;;10.50;100.00
19210;BME280;9738;51.654;14.238;2023-03-20T00:58:52;100524.81;;;10.55;100.00
19210;BME280;9738;51.654;14.238;2023-03-20T01:01:19;100518.34;;;10.58;100.00
19210;BME280;9738;51.654;14.238;2023-03-20T01:03:45;100512.19;;;10.58;100.00
19210;BME280;9738;51.654;14.238;2023-03-20T01:06:11;100522.03;;;10.57;100.00
19210;BME280;9738;51.654;14.238;2023-03-20T01:08:38;100522.16;;;10.55;100.00
19210;BME280;9738;51.654;14.238;2023-03-20T01:11:03;100519.34;;;10.57;100.00
19210;BME280;9738;51.654;14.238;2023-03-20T01:13:30;100518.75;;;10.63;100.00
19210;BME280;9738;51.654;14.238;2023-03-20T01:15:58;100514.25;;;10.64;100.00
19210;BME280;9738;51.654;14.238;2023-03-20T01:18:25;100511.72;;;10.62;100.00
19210;BME280;9738;51.654;14.238;2023-03-20T01:20:51;100519.13;;;10.68;100.00
19210;BME280;9738;51.654;14.238;2023-03-20T01:23:19;100513.94;;;10.67;100.00
19210;BME280;9738;51.654;14.238;2023-03-20T01:25:45;100521.78;;;10.68;100.00
19210;BME280;9738;51.654;14.238;2023-03-20T01:28:22;100511.50;;;10.73;100.00
19210;BME280;9738;51.654;14.238;2023-03-20T01:30:49;100523.50;;;10.69;100.00
19210;BME280;9738;51.654;14.238;2023-03-20T01:33:20;100522.78;;;10.67;100.00
19210;BME280;9738;51.654;14.238;2023-03-20T01:35:47;100518.16;;;10.69;100.00
19210;BME280;9738;51.654;14.238;2023-03-20T01:40:57;100507.84;;;10.74;100.00
19210;BME280;9738;51.654;14.238;2023-03-20T01:43:27;100508.84;;;10.73;100.00
19210;BME280;9738;51.654;14.238;2023-03-20T01:48:55;100509.44;;;10.67;100.00
19210;BME280;9738;51.654;14.238;2023-03-20T01:51:24;100514.09;;;10.65;100.00
19210;BME280;9738;51.654;14.238;2023-03-20T01:54:08;100504.94;;;10.68;100.00
19210;BME280;9738;51.654;14.238;2023-03-20T01:56:45;100506.47;;;10.70;100.00
19210;BME280;9738;51.654;14.238;2023-03-20T01:59:18;100508.06;;;10.63;100.00
19210;BME280;9738;51.654;14.238;2023-03-20T02:01:46;100516.38;;;10.60;100.00
19210;BME280;9738;51.654;14.238;2023-03-20T02:04:12;100509.53;;;10.48;100.00
19210;BME280;9738;51.654;14.238;2023-03-20T02:06:40;100513.81;;;10.41;100.00
19210;BME280;9738;51.654;14.238;2023-03-20T02:09:06;100513.06;;;10.48;100.00
19210;BME280;9738;51.654;14.238;2023-03-20T02:11:33;100508.94;;;10.54;100.00
19210;BME280;9738;51.654;14.238;2023-03-20T02:14:00;100514.59;;;10.51;100.00
19210;BME280;9738;51.654;14.238;2023-03-20T02:16:26;100516.31;;;10.42;100.00
19210;BME280;9738;51.654;14.238;2023-03-20T02:18:54;100511.44;;;10.38;100.00
19210;BME280;9738;51.654;14.238;2023-03-20T02:22:05;100509.06;;;10.35;100.00
19210;BME280;9738;51.654;14.238;2023-03-20T02:33:43;100512.81;;;10.42;100.00
19210;BME280;9738;51.654;14.238;2023-03-20T02:39:32;100504.81;;;10.42;100.00
19210;BME280;9738;51.654;14.238;2023-03-20T02:45:16;100506.22;;;10.36;100.00
19210;BME280;9738;51.654;14.238;2023-03-20T02:47:58;100503.72;;;10.35;100.00
19210;BME280;9738;51.654;14.238;2023-03-20T02:50:46;100512.16;;;10.30;100.00
19210;BME280;9738;51.654;14.238;2023-03-20T02:53:27;100508.28;;;10.24;100.00
19210;BME280;9738;51.654;14.238;2023-03-20T03:01:39;100499.53;;;10.22;100.00
19210;BME280;9738;51.654;14.238;2023-03-20T03:04:18;100492.81;;;10.18;100.00
19210;BME280;9738;51.654;14.238;2023-03-20T03:06:49;100497.34;;;10.08;100.00
19210;BME280;9738;51.654;14.238;2023-03-20T03:09:23;100493.16;;;10.06;100.00
19210;BME280;9738;51.654;14.238;2023-03-20T03:11:55;100494.28;;;10.03;100.00
19210;BME280;9738;51.654;14.238;2023-03-20T03:17:28;100487.84;;;9.96;100.00
19210;BME280;9738;51.654;14.238;2023-03-20T03:20:04;100498.94;;;9.91;100.00
19210;BME280;9738;51.654;14.238;2023-03-20T03:22:33;100495.31;;;9.83;100.00
19210;BME280;9738;51.654;14.238;2023-03-20T03:25:00;100501.53;;;9.73;100.00
19210;BME280;9738;51.654;14.238;2023-03-20T03:27:31;100493.81;;;9.70;100.00
19210;BME280;9738;51.654;14.238;2023-03-20T03:30:05;100489.75;;;9.66;100.00
19210;BME280;9738;51.654;14.238;2023-03-20T03:32:35;100487.50;;;9.71;100.00
19210;BME280;9738;51.654;14.238;2023-03-20T03:35:05;100495.06;;;9.76;100.00
19210;BME280;9738;51.654;14.238;2023-03-20T03:37:47;100492.41;;;9.76;100.00
19210;BME280;9738;51.654;14.238;2023-03-20T03:43:07;100491.97;;;9.81;100.00
19210;BME280;9738;51.654;14.238;2023-03-20T03:45:51;100500.34;;;9.86;100.00
19210;BME280;9738;51.654;14.238;2023-03-20T03:48:22;100495.47;;;9.81;100.00
19210;BME280;9738;51.654;14.238;2023-03-20T03:50:58;100490.88;;;9.73;100.00
19210;BME280;9738;51.654;14.238;2023-03-20T03:53:30;100495.22;;;9.74;100.00
19210;BME280;9738;51.654;14.238;2023-03-20T03:56:01;100496.22;;;9.73;100.00
19210;BME280;9738;51.654;14.238;2023-03-20T03:58:32;100485.91;;;9.79;100.00
19210;BME280;9738;51.654;14.238;2023-03-20T04:01:03;100496.59;;;9.79;100.00
19210;BME280;9738;51.654;14.238;2023-03-20T04:03:31;100492.66;;;9.83;100.00
19210;BME280;9738;51.654;14.238;2023-03-20T04:06:00;100495.47;;;9.81;100.00
19210;BME280;9738;51.654;14.238;2023-03-20T04:08:28;100496.00;;;9.85;100.00
19210;BME280;9738;51.654;14.238;2023-03-20T04:10:53;100500.66;;;9.83;100.00
19210;BME280;9738;51.654;14.238;2023-03-20T04:13:19;100506.16;;;9.81;100.00
19210;BME280;9738;51.654;14.238;2023-03-20T04:15:46;100498.00;;;9.83;100.00
19210;BME280;9738;51.654;14.238;2023-03-20T04:18:14;100496.31;;;9.82;100.00
19210;BME280;9738;51.654;14.238;2023-03-20T04:20:42;100499.66;;;9.84;100.00
19210;BME280;9738;51.654;14.238;2023-03-20T04:23:08;100510.66;;;9.81;100.00
19210;BME280;9738;51.654;14.238;2023-03-20T04:25:34;100505.31;;;9.81;100.00
19210;BME280;9738;51.654;14.238;2023-03-20T04:28:00;100508.94;;;9.80;100.00
19210;BME280;9738;51.654;14.238;2023-03-20T04:30:26;100512.91;;;9.75;100.00
19210;BME280;9738;51.654;14.238;2023-03-20T04:32:52;100504.59;;;9.79;100.00
19210;BME280;9738;51.654;14.238;2023-03-20T04:35:18;100510.09;;;9.77;100.00
19210;BME280;9738;51.654;14.238;2023-03-20T04:37:44;100520.75;;;9.77;100.00
19210;BME280;9738;51.654;14.238;2023-03-20T04:40:10;100515.56;;;9.75;100.00
19210;BME280;9738;51.654;14.238;2023-03-20T04:42:37;100517.41;;;9.75;100.00
19210;BME280;9738;51.654;14.238;2023-03-20T04:45:04;100510.50;;;9.72;100.00
19210;BME280;9738;51.654;14.238;2023-03-20T04:47:31;100512.91;;;9.66;100.00
19210;BME280;9738;51.654;14.238;2023-03-20T04:49:56;100521.06;;;9.64;100.00
19210;BME280;9738;51.654;14.238;2023-03-20T04:52:23;100523.72;;;9.64;100.00
19210;BME280;9738;51.654;14.238;2023-03-20T04:54:49;100536.22;;;9.64;100.00
19210;BME280;9738;51.654;14.238;2023-03-20T04:57:14;100533.69;;;9.62;100.00
19210;BME280;9738;51.654;14.238;2023-03-20T04:59:42;100534.28;;;9.56;100.00
19210;BME280;9738;51.654;14.238;2023-03-20T05:02:08;100538.88;;;9.54;100.00
19210;BME280;9738;51.654;14.238;2023-03-20T05:04:33;100539.34;;;9.50;100.00
19210;BME280;9738;51.654;14.238;2023-03-20T05:07:00;100546.88;;;9.54;100.00
19210;BME280;9738;51.654;14.238;2023-03-20T05:09:26;100550.28;;;9.56;100.00
19210;BME280;9738;51.654;14.238;2023-03-20T05:11:52;100549.44;;;9.56;100.00
19210;BME280;9738;51.654;14.238;2023-03-20T05:14:18;100542.28;;;9.56;100.00
19210;BME280;9738;51.654;14.238;2023-03-20T05:16:44;100549.97;;;9.59;100.00
19210;BME280;9738;51.654;14.238;2023-03-20T05:19:09;100550.69;;;9.61;100.00
19210;BME280;9738;51.654;14.238;2023-03-20T05:21:36;100554.19;;;9.62;100.00
19210;BME280;9738;51.654;14.238;2023-03-20T05:24:01;100558.69;;;9.61;100.00
19210;BME280;9738;51.654;14.238;2023-03-20T05:26:27;100556.88;;;9.62;100.00
19210;BME280;9738;51.654;14.238;2023-03-20T05:28:53;100560.63;;;9.59;100.00
19210;BME280;9738;51.654;14.238;2023-03-20T05:31:20;100558.81;;;9.60;100.00
19210;BME280;9738;51.654;14.238;2023-03-20T05:33:45;100556.97;;;9.60;100.00
19210;BME280;9738;51.654;14.238;2023-03-20T05:36:12;100564.16;;;9.60;100.00
19210;BME280;9738;51.654;14.238;2023-03-20T05:38:37;100556.97;;;9.60;100.00
19210;BME280;9738;51.654;14.238;2023-03-20T05:41:03;100557.84;;;9.61;100.00
19210;BME280;9738;51.654;14.238;2023-03-20T05:43:30;100556.28;;;9.58;100.00
19210;BME280;9738;51.654;14.238;2023-03-20T05:45:56;100559.81;;;9.59;100.00
19210;BME280;9738;51.654;14.238;2023-03-20T05:48:22;100565.97;;;9.59;100.00
19210;BME280;9738;51.654;14.238;2023-03-20T05:50:49;100561.22;;;9.63;100.00
19210;BME280;9738;51.654;14.238;2023-03-20T05:53:15;100562.06;;;9.63;100.00
19210;BME280;9738;51.654;14.238;2023-03-20T05:55:41;100566.25;;;9.66;100.00
19210;BME280;9738;51.654;14.238;2023-03-20T05:58:10;100572.56;;;9.65;100.00
19210;BME280;9738;51.654;14.238;2023-03-20T06:00:37;100575.09;;;9.66;100.00
19210;BME280;9738;51.654;14.238;2023-03-20T06:03:03;100567.50;;;9.71;100.00
19210;BME280;9738;51.654;14.238;2023-03-20T06:05:29;100574.09;;;9.77;100.00
19210;BME280;9738;51.654;14.238;2023-03-20T06:07:55;100572.69;;;9.83;100.00
19210;BME280;9738;51.654;14.238;2023-03-20T06:10:21;100571.69;;;9.84;100.00
19210;BME280;9738;51.654;14.238;2023-03-20T06:12:47;100578.44;;;9.88;100.00
19210;BME280;9738;51.654;14.238;2023-03-20T06:15:13;100577.88;;;9.94;100.00
19210;BME280;9738;51.654;14.238;2023-03-20T06:17:39;100577.56;;;9.97;100.00
19210;BME280;9738;51.654;14.238;2023-03-20T06:20:06;100585.16;;;10.01;100.00
19210;BME280;9738;51.654;14.238;2023-03-20T06:22:32;100585.41;;;9.98;100.00
19210;BME280;9738;51.654;14.238;2023-03-20T06:24:58;100585.56;;;9.97;100.00
19210;BME280;9738;51.654;14.238;2023-03-20T06:27:25;100583.88;;;9.96;100.00
19210;BME280;9738;51.654;14.238;2023-03-20T06:29:51;100586.13;;;10.00;100.00
19210;BME280;9738;51.654;14.238;2023-03-20T06:32:17;100596.97;;;9.99;100.00
19210;BME280;9738;51.654;14.238;2023-03-20T06:34:43;100591.16;;;10.03;100.00
19210;BME280;9738;51.654;14.238;2023-03-20T06:37:09;100586.97;;;10.01;100.00
19210;BME280;9738;51.654;14.238;2023-03-20T06:39:35;100582.75;;;10.08;100.00
19210;BME280;9738;51.654;14.238;2023-03-20T06:42:02;100583.16;;;10.13;100.00
19210;BME280;9738;51.654;14.238;2023-03-20T06:44:27;100588.66;;;10.12;100.00
19210;BME280;9738;51.654;14.238;2023-03-20T06:46:53;100583.56;;;10.18;100.00
19210;BME280;9738;51.654;14.238;2023-03-20T06:49:19;100586.66;;;10.23;100.00
19210;BME280;9738;51.654;14.238;2023-03-20T06:51:45;100588.06;;;10.27;100.00
19210;BME280;9738;51.654;14.238;2023-03-20T06:54:12;100595.63;;;10.32;100.00
19210;BME280;9738;51.654;14.238;2023-03-20T06:56:39;100595.75;;;10.31;100.00
19210;BME280;9738;51.654;14.238;2023-03-20T06:59:05;100598.44;;;10.31;100.00
19210;BME280;9738;51.654;14.238;2023-03-20T07:01:31;100598.25;;;10.42;100.00
19210;BME280;9738;51.654;14.238;2023-03-20T07:03:57;100596.69;;;10.49;100.00
19210;BME280;9738;51.654;14.238;2023-03-20T07:06:23;100603.13;;;10.56;100.00
19210;BME280;9738;51.654;14.238;2023-03-20T07:08:49;100602.53;;;10.62;100.00
19210;BME280;9738;51.654;14.238;2023-03-20T07:11:18;100600.00;;;10.61;100.00
19210;BME280;9738;51.654;14.238;2023-03-20T07:13:43;100591.84;;;10.62;100.00
19210;BME280;9738;51.654;14.238;2023-03-20T07:16:09;100595.50;;;10.61;100.00
19210;BME280;9738;51.654;14.238;2023-03-20T07:18:36;100590.41;;;10.68;100.00
19210;BME280;9738;51.654;14.238;2023-03-20T07:21:04;100592.94;;;10.69;100.00
19210;BME280;9738;51.654;14.238;2023-03-20T07:23:31;100601.91;;;10.78;100.00
19210;BME280;9738;51.654;14.238;2023-03-20T07:25:59;100601.97;;;10.86;100.00
19210;BME280;9738;51.654;14.238;2023-03-20T07:28:25;100606.72;;;10.92;100.00
19210;BME280;9738;51.654;14.238;2023-03-20T07:30:51;100605.00;;;11.01;100.00
19210;BME280;9738;51.654;14.238;2023-03-20T07:33:18;100609.13;;;11.13;100.00
19210;BME280;9738;51.654;14.238;2023-03-20T07:35:43;100607.25;;;11.23;100.00
19210;BME280;9738;51.654;14.238;2023-03-20T07:38:10;100611.69;;;11.32;100.00
19210;BME280;9738;51.654;14.238;2023-03-20T07:40:36;100612.16;;;11.46;100.00
19210;BME280;9738;51.654;14.238;2023-03-20T07:43:02;100617.56;;;11.54;100.00
19210;BME280;9738;51.654;14.238;2023-03-20T07:45:28;100624.22;;;11.50;100.00
19210;BME280;9738;51.654;14.238;2023-03-20T07:47:54;100624.31;;;11.40;100.00
19210;BME280;9738;51.654;14.238;2023-03-20T07:50:20;100627.59;;;11.34;100.00
19210;BME280;9738;51.654;14.238;2023-03-20T07:52:47;100629.78;;;11.38;100.00
19210;BME280;9738;51.654;14.238;2023-03-20T07:55:14;100628.59;;;11.33;100.00
19210;BME280;9738;51.654;14.238;2023-03-20T07:57:41;100631.47;;;11.22;100.00
19210;BME280;9738;51.654;14.238;2023-03-20T08:00:07;100629.84;;;11.11;100.00
19210;BME280;9738;51.654;14.238;2023-03-20T08:02:34;100629.84;;;11.11;100.00
19210;BME280;9738;51.654;14.238;2023-03-20T08:04:59;100628.56;;;11.15;100.00
19210;BME280;9738;51.654;14.238;2023-03-20T08:07:25;100630.22;;;11.16;100.00
19210;BME280;9738;51.654;14.238;2023-03-20T08:09:51;100635.22;;;11.29;100.00
19210;BME280;9738;51.654;14.238;2023-03-20T08:12:17;100635.13;;;11.21;100.00
19210;BME280;9738;51.654;14.238;2023-03-20T08:14:43;100629.31;;;11.25;100.00
19210;BME280;9738;51.654;14.238;2023-03-20T08:17:09;100626.59;;;11.35;100.00
19210;BME280;9738;51.654;14.238;2023-03-20T08:19:35;100622.16;;;11.44;100.00
19210;BME280;9738;51.654;14.238;2023-03-20T08:22:01;100628.88;;;11.48;100.00
19210;BME280;9738;51.654;14.238;2023-03-20T08:24:27;100628.28;;;11.54;100.00
19210;BME280;9738;51.654;14.238;2023-03-20T08:26:54;100627.22;;;11.64;100.00
19210;BME280;9738;51.654;14.238;2023-03-20T08:29:19;100627.56;;;11.70;100.00
19210;BME280;9738;51.654;14.238;2023-03-20T08:31:46;100637.81;;;11.74;100.00
19210;BME280;9738;51.654;14.238;2023-03-20T08:34:12;100635.59;;;11.70;100.00
19210;BME280;9738;51.654;14.238;2023-03-20T08:36:37;100622.38;;;11.68;100.00
19210;BME280;9738;51.654;14.238;2023-03-20T08:39:05;100634.47;;;11.72;100.00
19210;BME280;9738;51.654;14.238;2023-03-20T08:41:36;100630.19;;;11.79;100.00
19210;BME280;9738;51.654;14.238;2023-03-20T08:44:08;100627.38;;;11.81;100.00
19210;BME280;9738;51.654;14.238;2023-03-20T08:46:34;100632.72;;;11.81;100.00
19210;BME280;9738;51.654;14.238;2023-03-20T08:49:00;100636.63;;;11.86;100.00
19210;BME280;9738;51.654;14.238;2023-03-20T08:51:26;100633.00;;;11.96;100.00
19210;BME280;9738;51.654;14.238;2023-03-20T08:53:52;100642.41;;;12.00;100.00
19210;BME280;9738;51.654;14.238;2023-03-20T08:56:18;100641.34;;;11.93;100.00
19210;BME280;9738;51.654;14.238;2023-03-20T08:58:44;100656.03;;;11.88;100.00
19210;BME280;9738;51.654;14.238;2023-03-20T09:01:10;100655.31;;;11.69;100.00
19210;BME280;9738;51.654;14.238;2023-03-20T09:03:36;100652.13;;;11.65;100.00
19210;BME280;9738;51.654;14.238;2023-03-20T09:06:05;100661.00;;;11.66;100.00
19210;BME280;9738;51.654;14.238;2023-03-20T09:08:32;100652.25;;;11.63;100.00
19210;BME280;9738;51.654;14.238;2023-03-20T09:10:58;100647.91;;;11.62;100.00
19210;BME280;9738;51.654;14.238;2023-03-20T09:13:24;100656.63;;;11.47;100.00
19210;BME280;9738;51.654;14.238;2023-03-20T09:15:51;100653.63;;;11.50;100.00
19210;BME280;9738;51.654;14.238;2023-03-20T09:18:18;100663.06;;;11.54;100.00
19210;BME280;9738;51.654;14.238;2023-03-20T09:20:45;100668.09;;;11.57;100.00
19210;BME280;9738;51.654;14.238;2023-03-20T09:23:11;100663.22;;;11.52;100.00
19210;BME280;9738;51.654;14.238;2023-03-20T09:25:37;100664.72;;;11.55;100.00
19210;BME280;9738;51.654;14.238;2023-03-20T09:28:03;100666.13;;;11.59;100.00
19210;BME280;9738;51.654;14.238;2023-03-20T09:30:29;100657.78;;;11.62;100.00
19210;BME280;9738;51.654;14.238;2023-03-20T09:32:54;100654.25;;;11.61;100.00
19210;BME280;9738;51.654;14.238;2023-03-20T09:35:21;100656.66;;;11.64;100.00
19210;BME280;9738;51.654;14.238;2023-03-20T09:37:47;100655.47;;;11.67;100.00
19210;BME280;9738;51.654;14.238;2023-03-20T09:43:16;100670.03;;;11.82;100.00
19210;BME280;9738;51.654;14.238;2023-03-20T09:45:52;100674.09;;;11.86;100.00
19210;BME280;9738;51.654;14.238;2023-03-20T09:48:35;100674.09;;;11.86;100.00
19210;BME280;9738;51.654;14.238;2023-03-20T09:51:13;100679.75;;;11.83;100.00
19210;BME280;9738;51.654;14.238;2023-03-20T09:53:48;100674.41;;;11.83;100.00
19210;BME280;9738;51.654;14.238;2023-03-20T09:56:18;100675.25;;;11.84;100.00
19210;BME280;9738;51.654;14.238;2023-03-20T09:58:52;100684.25;;;11.83;100.00
19210;BME280;9738;51.654;14.238;2023-03-20T10:01:21;100686.53;;;11.78;100.00
19210;BME280;9738;51.654;14.238;2023-03-20T10:03:53;100691.03;;;11.77;100.00
19210;BME280;9738;51.654;14.238;2023-03-20T10:06:20;100689.81;;;11.72;100.00
19210;BME280;9738;51.654;14.238;2023-03-20T10:08:46;100693.94;;;11.66;100.00
19210;BME280;9738;51.654;14.238;2023-03-20T10:11:25;100690.72;;;11.62;100.00
19210;BME280;9738;51.654;14.238;2023-03-20T10:19:34;100699.63;;;11.35;100.00
19210;BME280;9738;51.654;14.238;2023-03-20T10:22:10;100706.59;;;11.19;100.00
19210;BME280;9738;51.654;14.238;2023-03-20T10:24:47;100701.00;;;11.12;100.00
19210;BME280;9738;51.654;14.238;2023-03-20T10:27:28;100703.31;;;11.07;100.00
19210;BME280;9738;51.654;14.238;2023-03-20T10:30:19;100718.81;;;10.94;100.00
19210;BME280;9738;51.654;14.238;2023-03-20T10:35:49;100703.69;;;10.75;100.00
19210;BME280;9738;51.654;14.238;2023-03-20T10:38:38;100706.66;;;10.72;100.00
19210;BME280;9738;51.654;14.238;2023-03-20T10:41:12;100708.50;;;10.71;100.00
19210;BME280;9738;51.654;14.238;2023-03-20T10:43:41;100704.31;;;10.69;100.00
19210;BME280;9738;51.654;14.238;2023-03-20T10:46:12;100710.66;;;10.58;100.00
19210;BME280;9738;51.654;14.238;2023-03-20T10:48:51;100713.38;;;10.39;100.00
19210;BME280;9738;51.654;14.238;2023-03-20T10:51:30;100705.63;;;10.36;100.00
19210;BME280;9738;51.654;14.238;2023-03-20T10:54:02;100705.63;;;10.36;100.00
19210;BME280;9738;51.654;14.238;2023-03-20T10:56:35;100707.63;;;10.34;100.00
19210;BME280;9738;51.654;14.238;2023-03-20T10:59:09;100707.50;;;10.25;100.00
19210;BME280;9738;51.654;14.238;2023-03-20T11:01:38;100703.00;;;10.26;100.00
19210;BME280;9738;51.654;14.238;2023-03-20T11:04:04;100701.44;;;10.23;100.00
19210;BME280;9738;51.654;14.238;2023-03-20T11:06:33;100700.47;;;10.24;100.00
19210;BME280;9738;51.654;14.238;2023-03-20T11:09:20;100700.88;;;10.29;100.00
19210;BME280;9738;51.654;14.238;2023-03-20T11:11:47;100695.94;;;10.35;100.00
19210;BME280;9738;51.654;14.238;2023-03-20T11:14:19;100690.88;;;10.41;100.00
19210;BME280;9738;51.654;14.238;2023-03-20T11:16:50;100687.03;;;10.53;100.00
19210;BME280;9738;51.654;14.238;2023-03-20T11:19:19;100689.97;;;10.60;100.00
19210;BME280;9738;51.654;14.238;2023-03-20T11:21:49;100686.19;;;10.63;100.00
19210;BME280;9738;51.654;14.238;2023-03-20T11:24:26;100691.38;;;10.64;100.00
19210;BME280;9738;51.654;14.238;2023-03-20T11:27:03;100693.34;;;10.62;100.00
19210;BME280;9738;51.654;14.238;2023-03-20T11:29:30;100695.31;;;10.60;100.00
19210;BME280;9738;51.654;14.238;2023-03-20T11:32:16;100699.13;;;10.58;100.00
19210;BME280;9738;51.654;14.238;2023-03-20T11:34:44;100692.38;;;10.53;100.00
19210;BME280;9738;51.654;14.238;2023-03-20T11:37:22;100690.72;;;10.52;100.00
19210;BME280;9738;51.654;14.238;2023-03-20T11:40:32;100697.03;;;10.51;100.00
19210;BME280;9738;51.654;14.238;2023-03-20T11:45:24;100691.84;;;10.50;100.00
19210;BME280;9738;51.654;14.238;2023-03-20T11:47:54;100691.72;;;10.42;100.00
19210;BME280;9738;51.654;14.238;2023-03-20T11:50:30;100701.97;;;10.37;100.00
19210;BME280;9738;51.654;14.238;2023-03-20T11:52:57;100695.69;;;10.28;100.00
19210;BME280;9738;51.654;14.238;2023-03-20T11:55:28;100697.06;;;10.22;100.00
19210;BME280;9738;51.654;14.238;2023-03-20T11:57:57;100701.84;;;10.19;100.00
19210;BME280;9738;51.654;14.238;2023-03-20T12:00:38;100704.09;;;10.14;100.00
19210;BME280;9738;51.654;14.238;2023-03-20T12:04:14;100696.09;;;10.04;100.00
19210;BME280;9738;51.654;14.238;2023-03-20T12:06:24;100691.19;;;9.99;100.00
19210;BME280;9738;51.654;14.238;2023-03-20T12:09:03;100687.81;;;9.97;100.00
19210;BME280;9738;51.654;14.238;2023-03-20T12:11:51;100680.53;;;9.99;100.00
19210;BME280;9738;51.654;14.238;2023-03-20T12:14:22;100680.06;;;10.04;100.00
19210;BME280;9738;51.654;14.238;2023-03-20T12:16:52;100679.66;;;10.09;100.00
19210;BME280;9738;51.654;14.238;2023-03-20T12:19:25;100682.47;;;10.07;100.00
19210;BME280;9738;51.654;14.238;2023-03-20T12:22:17;100687.41;;;10.12;100.00
19210;BME280;9738;51.654;14.238;2023-03-20T12:25:15;100685.84;;;10.09;100.00
19210;BME280;9738;51.654;14.238;2023-03-20T12:27:54;100694.56;;;10.01;100.00
19210;BME280;9738;51.654;14.238;2023-03-20T12:30:45;100692.88;;;10.00;100.00
19210;BME280;9738;51.654;14.238;2023-03-20T12:33:20;100683.72;;;10.03;100.00
19210;BME280;9738;51.654;14.238;2023-03-20T12:35:50;100692.84;;;10.10;100.00
19210;BME280;9738;51.654;14.238;2023-03-20T12:38:31;100689.34;;;10.19;100.00
19210;BME280;9738;51.654;14.238;2023-03-20T12:41:15;100695.53;;;10.20;100.00
19210;BME280;9738;51.654;14.238;2023-03-20T12:46:41;100692.00;;;10.19;100.00
19210;BME280;9738;51.654;14.238;2023-03-20T12:49:33;100689.78;;;10.24;100.00
19210;BME280;9738;51.654;14.238;2023-03-20T12:52:33;100685.84;;;10.19;100.00
19210;BME280;9738;51.654;14.238;2023-03-20T12:55:15;100682.47;;;9.97;100.00
19210;BME280;9738;51.654;14.238;2023-03-20T12:57:58;100684.59;;;9.94;100.00
19210;BME280;9738;51.654;14.238;2023-03-20T13:00:34;100678.81;;;9.98;100.00
19210;BME280;9738;51.654;14.238;2023-03-20T13:03:12;100672.50;;;10.09;100.00
19210;BME280;9738;51.654;14.238;2023-03-20T13:05:47;100671.94;;;10.06;100.00
19210;BME280;9738;51.654;14.238;2023-03-20T13:11:12;100659.97;;;10.29;100.00
19210;BME280;9738;51.654;14.238;2023-03-20T13:13:54;100655.34;;;10.31;100.00
19210;BME280;9738;51.654;14.238;2023-03-20T13:17:01;100657.56;;;10.36;100.00
19210;BME280;9738;51.654;14.238;2023-03-20T13:25:53;100653.88;;;10.56;100.00
19210;BME280;9738;51.654;14.238;2023-03-20T13:28:28;100644.13;;;10.65;100.00
19210;BME280;9738;51.654;14.238;2023-03-20T13:34:23;100640.03;;;10.70;100.00
19210;BME280;9738;51.654;14.238;2023-03-20T13:37:14;100636.31;;;10.81;100.00
19210;BME280;9738;51.654;14.238;2023-03-20T13:39:57;100624.59;;;10.64;100.00
19210;BME280;9738;51.654;14.238;2023-03-20T13:42:28;100631.78;;;10.64;100.00
19210;BME280;9738;51.654;14.238;2023-03-20T13:45:03;100621.53;;;10.59;100.00
19210;BME280;9738;51.654;14.238;2023-03-20T13:47:30;100622.22;;;10.61;100.00
19210;BME280;9738;51.654;14.238;2023-03-20T13:50:23;100621.63;;;10.67;100.00
19210;BME280;9738;51.654;14.238;2023-03-20T13:53:11;100616.50;;;10.83;100.00
19210;BME280;9738;51.654;14.238;2023-03-20T13:55:50;100618.50;;;10.72;100.00
19210;BME280;9738;51.654;14.238;2023-03-20T13:58:34;100611.94;;;10.66;100.00
19210;BME280;9738;51.654;14.238;2023-03-20T14:01:30;100621.63;;;10.67;100.00
19210;BME280;9738;51.654;14.238;2023-03-20T14:04:00;100631.19;;;10.70;100.00
19210;BME280;9738;51.654;14.238;2023-03-20T14:08:57;100628.22;;;10.73;100.00
19210;BME280;9738;51.654;14.238;2023-03-20T14:13:53;100623.31;;;10.68;100.00